Time;durP1;ratioP1;P1;durP2;ratioP2;P2;SDS_P1;SDS_P2;PMS_P1;PMS_P2;Temp;Humidity;BMP_temperature;BMP_pressure;BME280_temperature;BME280_humidity;BME280_pressure;Samples;Min_cycle;Max_cycle;Signal;HPM_P1;HPM_P2
2023/07/04 00:04:29;;;;;;;;;;;;;;;22.88;45.26;95534.50;10399942;28;1978;-68
2023/07/04 00:09:30;;;;;;;;;;;;;;;22.86;44.84;95532.16;10397984;28;2229;-68
2023/07/04 00:14:30;;;;;;;;;;;;;;;22.87;45.08;95530.31;10399460;28;1951;-68
2023/07/04 00:19:32;;;;;;;;;;;;;;;22.86;44.83;95515.53;10394988;28;2046;-69
2023/07/04 00:24:32;;;;;;;;;;;;;;;22.86;44.72;95520.81;10386153;28;2011;-69
2023/07/04 00:29:32;;;;;;;;;;;;;;;22.84;44.72;95518.47;10405210;28;1955;-69
2023/07/04 00:34:34;;;;;;;;;;;;;;;22.83;44.65;95511.63;10406200;28;1941;-69
2023/07/04 00:39:34;;;;;;;;;;;;;;;22.85;44.80;95521.91;10406645;28;1911;-69
2023/07/04 00:44:37;;;;;;;;;;;;;;;22.82;44.63;95530.41;10408693;28;1947;-69
2023/07/04 00:49:44;;;;;;;;;;;;;;;22.83;44.54;95539.91;10404060;28;1976;-69
2023/07/04 00:54:52;;;;;;;;;;;;;;;22.83;44.86;95539.91;10375776;28;2174;-69
2023/07/04 00:59:57;;;;;;;;;;;;;;;22.82;44.52;95540.97;10382880;28;2300;-69
2023/07/04 01:04:58;;;;;;;;;;;;;;;22.80;44.64;95538.63;10385762;28;2180;-68
2023/07/04 01:10:00;;;;;;;;;;;;;;;22.81;44.54;95544.72;10414041;28;2035;-69
2023/07/04 01:15:00;;;;;;;;;;;;;;;22.81;44.80;95552.63;10383942;28;2192;-68
2023/07/04 01:20:00;;;;;;;;;;;;;;;22.81;44.43;95571.13;10403479;28;1991;-67
2023/07/04 01:25:20;;;;;;;;;;;;;;;22.80;44.69;95578.28;10400959;28;1976;-68
2023/07/04 01:30:22;;;;;;;;;;;;;;;22.80;44.50;95585.41;10406852;28;2090;-67
2023/07/04 01:35:22;;;;;;;;;;;;;;;22.79;44.40;95584.66;10387407;28;2088;-68
2023/07/04 01:40:23;;;;;;;;;;;;;;;22.79;44.34;95581.22;10383318;28;2027;-66
2023/07/04 01:45:24;;;;;;;;;;;;;;;22.78;44.47;95583.06;10402797;28;4474;-68
2023/07/04 01:50:24;;;;;;;;;;;;;;;22.79;44.45;95597.06;10402199;28;2015;-68
2023/07/04 01:55:25;;;;;;;;;;;;;;;22.78;44.39;95598.13;10386161;28;2035;-67
2023/07/04 02:00:25;;;;;;;;;;;;;;;22.79;44.58;95587.28;10404341;28;2421;-67
2023/07/04 02:05:26;;;;;;;;;;;;;;;22.78;44.46;95603.41;10403508;28;2002;-68
2023/07/04 02:10:26;;;;;;;;;;;;;;;22.78;44.28;95612.13;10398906;28;2306;-67
2023/07/04 02:15:27;;;;;;;;;;;;;;;22.79;44.33;95631.41;10396790;28;2395;-67
2023/07/04 02:20:27;;;;;;;;;;;;;;;22.79;44.56;95626.13;10400652;28;2209;-68
2023/07/04 02:25:27;;;;;;;;;;;;;;;22.79;44.63;95626.13;10400287;28;2261;-67
2023/07/04 02:30:28;;;;;;;;;;;;;;;22.79;44.47;95628.78;10400892;28;1981;-69
2023/07/04 02:35:28;;;;;;;;;;;;;;;22.76;44.61;95626.69;10401716;28;2095;-68
2023/07/04 02:40:28;;;;;;;;;;;;;;;22.75;44.94;95617.22;10399700;28;2220;-68
2023/07/04 02:45:29;;;;;;;;;;;;;;;22.76;45.00;95632.00;10399552;28;4481;-69
2023/07/04 02:50:29;;;;;;;;;;;;;;;22.75;44.97;95631.19;10397188;28;2109;-68
2023/07/04 02:55:29;;;;;;;;;;;;;;;22.75;44.92;95615.34;10396541;28;2004;-68
2023/07/04 03:00:30;;;;;;;;;;;;;;;22.75;45.34;95622.50;10401418;28;2297;-70
2023/07/04 03:05:31;;;;;;;;;;;;;;;22.76;45.34;95616.13;10401457;28;2049;-70
2023/07/04 03:10:31;;;;;;;;;;;;;;;22.76;45.53;95616.13;10398761;28;1953;-68
2023/07/04 03:15:31;;;;;;;;;;;;;;;22.75;45.64;95598.72;10381962;28;2030;-68
2023/07/04 03:20:31;;;;;;;;;;;;;;;22.75;45.95;95607.41;10399810;28;1960;-68
2023/07/04 03:25:32;;;;;;;;;;;;;;;22.75;45.85;95604.78;10397837;28;1968;-68
2023/07/04 03:30:32;;;;;;;;;;;;;;;22.74;46.02;95607.72;10397913;28;2135;-68
2023/07/04 03:35:33;;;;;;;;;;;;;;;22.73;45.84;95617.50;10400195;28;2100;-68
2023/07/04 03:40:34;;;;;;;;;;;;;;;22.70;46.04;95623.38;10380798;28;1985;-68
2023/07/04 03:45:34;;;;;;;;;;;;;;;22.70;46.12;95628.66;10397156;28;4482;-68
2023/07/04 03:50:34;;;;;;;;;;;;;;;22.72;46.14;95631.78;10396746;28;1987;-68
2023/07/04 03:55:35;;;;;;;;;;;;;;;22.73;46.27;95651.09;10400978;28;2443;-68
2023/07/04 04:00:35;;;;;;;;;;;;;;;22.73;46.15;95654.47;10405685;28;2112;-69
2023/07/04 04:05:35;;;;;;;;;;;;;;;22.72;46.34;95660.84;10403477;28;2234;-69
2023/07/04 04:10:35;;;;;;;;;;;;;;;22.72;46.28;95666.16;10382732;28;2109;-69
2023/07/04 04:15:36;;;;;;;;;;;;;;;22.73;46.40;95665.06;10402962;28;1987;-69
2023/07/04 04:20:36;;;;;;;;;;;;;;;22.71;46.55;95671.72;10406556;28;2165;-68
2023/07/04 04:25:39;;;;;;;;;;;;;;;22.72;46.82;95675.91;10407425;28;2189;-69
2023/07/04 04:30:40;;;;;;;;;;;;;;;22.71;46.80;95687.56;10401940;28;2039;-69
2023/07/04 04:35:40;;;;;;;;;;;;;;;22.70;46.65;95676.22;10406869;28;2098;-70
2023/07/04 04:40:40;;;;;;;;;;;;;;;22.72;46.57;95681.22;10401055;28;2139;-69
2023/07/04 04:45:41;;;;;;;;;;;;;;;22.70;46.90;95678.06;10408388;28;4410;-69
2023/07/04 04:50:46;;;;;;;;;;;;;;;22.65;47.02;95679.72;10404736;28;2034;-69
2023/07/04 04:55:46;;;;;;;;;;;;;;;22.67;46.90;95683.94;10400014;28;2035;-69
2023/07/04 05:00:46;;;;;;;;;;;;;;;22.65;47.02;95679.72;10400265;28;1986;-69
2023/07/04 05:05:47;;;;;;;;;;;;;;;22.63;47.10;95697.72;10417995;28;2016;-69
2023/07/04 05:10:47;;;;;;;;;;;;;;;22.64;46.91;95704.59;10403336;28;2019;-69
2023/07/04 05:15:47;;;;;;;;;;;;;;;22.63;47.25;95699.56;10401813;28;2155;-69
2023/07/04 05:20:47;;;;;;;;;;;;;;;22.63;46.87;95705.63;10400930;28;2090;-68
2023/07/04 05:25:48;;;;;;;;;;;;;;;22.64;47.10;95707.22;10380532;28;2090;-69
2023/07/04 05:30:55;;;;;;;;;;;;;;;22.60;46.54;95703.59;10385242;28;2086;-70
2023/07/04 05:36:07;;;;;;;;;;;;;;;22.60;47.06;95698.31;10399746;28;1958;-69
2023/07/04 05:41:09;;;;;;;;;;;;;;;22.58;46.77;95689.88;10398316;28;4482;-69
2023/07/04 05:46:09;;;;;;;;;;;;;;;22.56;46.88;95686.72;10398904;28;1976;-65
2023/07/04 05:51:10;;;;;;;;;;;;;;;22.59;46.84;95690.66;10403361;28;2012;-68
2023/07/04 05:56:18;;;;;;;;;;;;;;;22.57;46.78;95698.84;10404400;28;2245;-74
2023/07/04 06:01:20;;;;;;;;;;;;;;;22.57;46.66;95705.97;10398296;28;2092;-70
2023/07/04 06:06:21;;;;;;;;;;;;;;;22.56;46.66;95705.22;10400069;28;2118;-71
2023/07/04 06:11:22;;;;;;;;;;;;;;;22.57;46.49;95709.41;10411169;28;2018;-71
2023/07/04 06:16:22;;;;;;;;;;;;;;;22.56;46.67;95712.34;10402568;28;2003;-71
2023/07/04 06:21:23;;;;;;;;;;;;;;;22.54;46.58;95710.00;10400262;28;2087;-71
2023/07/04 06:26:27;;;;;;;;;;;;;;;22.55;46.51;95710.75;10408763;28;2083;-70
2023/07/04 06:31:27;;;;;;;;;;;;;;;22.57;46.44;95721.81;10398255;28;1972;-71
2023/07/04 06:36:28;;;;;;;;;;;;;;;22.54;46.58;95717.91;10400370;28;2295;-69
2023/07/04 06:41:28;;;;;;;;;;;;;;;22.55;46.48;95716.03;10391309;28;2032;-70
2023/07/04 06:46:29;;;;;;;;;;;;;;;22.55;46.42;95721.31;10397078;28;2391;-70
2023/07/04 06:51:33;;;;;;;;;;;;;;;22.54;46.53;95712.63;10396900;28;2048;-70
2023/07/04 06:56:34;;;;;;;;;;;;;;;22.54;46.46;95722.41;10395547;28;1938;-70
2023/07/04 07:01:34;;;;;;;;;;;;;;;22.56;46.16;95726.34;10395502;28;2031;-69
2023/07/04 07:06:35;;;;;;;;;;;;;;;22.56;46.29;95723.69;10398127;28;2083;-70
2023/07/04 07:11:35;;;;;;;;;;;;;;;22.58;46.34;95731.34;10394598;28;1933;-72
2023/07/04 07:16:35;;;;;;;;;;;;;;;22.58;46.43;95724.22;10397027;28;1902;-72
2023/07/04 07:21:36;;;;;;;;;;;;;;;22.57;46.63;95727.91;10393843;28;2075;-71
2023/07/04 07:26:37;;;;;;;;;;;;;;;22.60;46.38;95726.56;10379738;28;2032;-71
2023/07/04 07:31:37;;;;;;;;;;;;;;;22.60;46.51;95726.56;10396498;28;1931;-71
2023/07/04 07:36:38;;;;;;;;;;;;;;;22.59;46.47;95722.34;10395389;28;2149;-71
2023/07/04 07:41:39;;;;;;;;;;;;;;;22.61;46.28;95726.28;10388753;28;4407;-71
2023/07/04 07:46:40;;;;;;;;;;;;;;;22.62;46.38;95727.06;10397735;28;1902;-70
2023/07/04 07:51:41;;;;;;;;;;;;;;;22.61;46.56;95728.94;10394349;28;1992;-71
2023/07/04 07:56:44;;;;;;;;;;;;;;;22.63;46.33;95723.34;10395960;28;1926;-71
2023/07/04 08:01:44;;;;;;;;;;;;;;;22.61;46.29;95715.72;10375920;28;2076;-70
2023/07/04 08:06:45;;;;;;;;;;;;;;;22.64;46.63;95720.44;10380167;28;1943;-72
2023/07/04 08:11:45;;;;;;;;;;;;;;;22.64;46.40;95717.78;10376357;28;1957;-71
2023/07/04 08:16:46;;;;;;;;;;;;;;;22.64;46.47;95711.72;10390198;28;2004;-70
2023/07/04 08:21:48;;;;;;;;;;;;;;;22.65;46.79;95715.91;10390336;28;1990;-71
2023/07/04 08:26:51;;;;;;;;;;;;;;;22.65;46.81;95711.41;10396772;28;1991;-71
2023/07/04 08:31:51;;;;;;;;;;;;;;;22.68;46.68;95712.72;10396381;28;1914;-70
2023/07/04 08:36:51;;;;;;;;;;;;;;;22.71;46.59;95729.84;10394260;28;2323;-71
2023/07/04 08:41:59;;;;;;;;;;;;;;;22.71;46.73;95729.84;10398828;28;4549;-72
2023/07/04 08:46:59;;;;;;;;;;;;;;;22.68;46.49;95723.28;10381889;28;1983;-72
2023/07/04 08:52:05;;;;;;;;;;;;;;;22.69;46.35;95726.72;10401619;28;2444;-74
2023/07/04 08:57:11;;;;;;;;;;;;;;;22.72;46.85;95720.84;10399973;28;1926;-73
2023/07/04 09:02:32;;;;;;;;;;;;;;;22.75;46.45;95721.03;10400922;28;2047;-71
2023/07/04 09:07:51;;;;;;;;;;;;;;;22.74;46.76;95714.19;10401587;28;2000;-71
2023/07/04 09:12:51;;;;;;;;;;;;;;;22.79;46.93;95718.63;10399805;28;1940;-71
2023/07/04 09:18:10;;;;;;;;;;;;;;;22.81;46.59;95708.56;10383182;28;1958;-71
2023/07/04 09:23:11;;;;;;;;;;;;;;;22.83;46.67;95712.50;10398933;28;1965;-72
2023/07/04 09:28:12;;;;;;;;;;;;;;;22.85;46.33;95714.84;10382468;28;1951;-72
2023/07/04 09:33:14;;;;;;;;;;;;;;;22.84;46.41;95718.53;10398789;28;2400;-71
2023/07/04 09:38:14;;;;;;;;;;;;;;;22.86;46.32;95708.47;10394442;28;2081;-70
2023/07/04 09:43:25;;;;;;;;;;;;;;;22.85;46.24;95698.97;10401649;28;4521;-71
2023/07/04 09:48:25;;;;;;;;;;;;;;;22.88;46.18;95701.03;10398691;28;2031;-70
2023/07/04 09:53:25;;;;;;;;;;;;;;;22.89;46.26;95705.25;10397164;28;1859;-70
2023/07/04 09:58:26;;;;;;;;;;;;;;;22.90;46.43;95699.66;10401712;28;1993;-71
2023/07/04 10:03:26;;;;;;;;;;;;;;;22.93;46.21;95698.31;10401953;28;1963;-70
2023/07/04 10:08:26;;;;;;;;;;;;;;;22.92;46.00;95691.44;10361017;28;2057;-70
2023/07/04 10:13:33;;;;;;;;;;;;;;;22.94;46.20;95689.28;10392730;28;2074;-69
2023/07/04 10:18:38;;;;;;;;;;;;;;;22.97;46.03;95694.03;10401115;28;1960;-70
2023/07/04 10:23:38;;;;;;;;;;;;;;;22.97;46.00;95686.09;10375632;28;1946;-70
2023/07/04 10:28:38;;;;;;;;;;;;;;;22.97;46.16;95676.31;10378832;28;2100;-69
2023/07/04 10:33:44;;;;;;;;;;;;;;;22.99;45.98;95673.38;10401023;28;2126;-67
2023/07/04 10:38:48;;;;;;;;;;;;;;;23.00;46.21;95664.38;10398397;28;1952;-72
2023/07/04 10:43:50;;;;;;;;;;;;;;;23.05;45.84;95666.91;10378793;28;4423;-67
2023/07/04 10:48:52;;;;;;;;;;;;;;;23.07;45.93;95670.06;10401390;28;2014;-66
2023/07/04 10:53:52;;;;;;;;;;;;;;;23.07;45.62;95665.56;10382087;28;1950;-71
2023/07/04 10:58:57;;;;;;;;;;;;;;;23.07;45.67;95662.91;10397973;28;1873;-71
2023/07/04 11:04:04;;;;;;;;;;;;;;;23.08;45.61;95667.09;10378649;28;1999;-72
2023/07/04 11:09:09;;;;;;;;;;;;;;;23.07;44.81;95654.19;10381574;28;1953;-72
2023/07/04 11:14:10;;;;;;;;;;;;;;;23.06;44.30;95652.63;10397162;28;2002;-69
2023/07/04 11:19:15;;;;;;;;;;;;;;;23.05;43.83;95651.03;10408552;28;2038;-69
2023/07/04 11:24:15;;;;;;;;;;;;;;;23.06;43.97;95650.75;10402882;28;2379;-68
2023/07/04 11:29:17;;;;;;;;;;;;;;;23.06;43.65;95656.03;10396619;28;1980;-69
2023/07/04 11:34:17;;;;;;;;;;;;;;;23.04;43.55;95644.97;10377404;28;1895;-69
2023/07/04 11:39:18;;;;;;;;;;;;;;;23.07;43.97;95638.31;10395771;28;1951;-69
2023/07/04 11:44:18;;;;;;;;;;;;;;;23.09;44.12;95630.88;10394747;28;4296;-70
2023/07/04 11:49:20;;;;;;;;;;;;;;;23.12;43.61;95632.97;10395699;28;1931;-68
2023/07/04 11:54:21;;;;;;;;;;;;;;;23.11;44.29;95623.44;10395916;28;2166;-70
2023/07/04 11:59:23;;;;;;;;;;;;;;;23.11;44.54;95623.44;10406100;28;1967;-69
2023/07/04 12:04:38;;;;;;;;;;;;;;;23.13;44.42;95623.94;10396335;28;1981;-69
2023/07/04 12:09:57;;;;;;;;;;;;;;;23.14;44.48;95622.88;10400645;28;1943;-69
2023/07/04 12:15:17;;;;;;;;;;;;;;;23.16;44.66;95610.13;10394939;28;1949;-69
2023/07/04 12:20:19;;;;;;;;;;;;;;;23.18;44.30;95594.75;10400276;28;2001;-69
2023/07/04 12:25:23;;;;;;;;;;;;;;;23.18;44.25;95586.84;10383855;28;2044;-69
2023/07/04 12:30:24;;;;;;;;;;;;;;;23.19;44.44;95583.09;10401758;28;1890;-69
2023/07/04 12:35:28;;;;;;;;;;;;;;;23.21;44.36;95576.44;10400196;28;2041;-69
2023/07/04 12:40:30;;;;;;;;;;;;;;;23.22;44.16;95577.22;10381811;28;1999;-69
2023/07/04 12:45:30;;;;;;;;;;;;;;;23.22;43.79;95575.38;10402153;28;4608;-69
2023/07/04 12:50:30;;;;;;;;;;;;;;;23.21;44.09;95567.72;10404284;28;1928;-70
2023/07/04 12:55:34;;;;;;;;;;;;;;;23.23;44.27;95554.97;10384914;28;2045;-69
2023/07/04 13:00:34;;;;;;;;;;;;;;;23.22;44.23;95553.44;10402587;28;1956;-69
2023/07/04 13:05:41;;;;;;;;;;;;;;;23.23;44.49;95539.13;10405153;28;2088;-68
2023/07/04 13:10:41;;;;;;;;;;;;;;;23.24;44.18;95532.75;10404517;28;1905;-69
2023/07/04 13:15:42;;;;;;;;;;;;;;;23.26;43.95;95528.75;10399981;28;2159;-69
2023/07/04 13:20:44;;;;;;;;;;;;;;;23.25;44.02;95526.38;10384022;28;1901;-69
2023/07/04 13:25:46;;;;;;;;;;;;;;;23.27;43.26;95521.59;10367795;28;1977;-69
2023/07/04 13:30:46;;;;;;;;;;;;;;;23.29;42.93;95532.66;10382847;28;1879;-69
2023/07/04 13:35:47;;;;;;;;;;;;;;;23.26;43.30;95530.59;10401185;28;1894;-69
2023/07/04 13:40:47;;;;;;;;;;;;;;;23.26;43.65;95522.69;10403889;28;1896;-69
2023/07/04 13:45:47;;;;;;;;;;;;;;;23.27;43.73;95532.16;10398968;28;4375;-69
2023/07/04 13:50:48;;;;;;;;;;;;;;;23.27;44.03;95524.22;10401684;28;2227;-70
2023/07/04 13:55:48;;;;;;;;;;;;;;;23.28;44.10;95520.53;10378094;28;1993;-69
2023/07/04 14:00:48;;;;;;;;;;;;;;;23.29;43.54;95508.84;10375675;28;1891;-71
2023/07/04 14:05:48;;;;;;;;;;;;;;;23.30;43.81;95507.78;10398662;28;2028;-70
2023/07/04 14:10:49;;;;;;;;;;;;;;;23.29;43.60;95503.56;10399155;28;2068;-71
2023/07/04 14:15:52;;;;;;;;;;;;;;;23.30;43.94;95510.44;10397614;28;2257;-69
2023/07/04 14:20:53;;;;;;;;;;;;;;;23.30;43.53;95503.28;10408879;28;1952;-70
2023/07/04 14:25:53;;;;;;;;;;;;;;;23.31;44.33;95494.25;10397220;28;1997;-71
2023/07/04 14:30:56;;;;;;;;;;;;;;;23.38;46.35;95491.25;10397613;28;1942;-71
2023/07/04 14:35:56;;;;;;;;;;;;;;;23.41;46.61;95490.66;10402780;28;2014;-70
2023/07/04 14:40:56;;;;;;;;;;;;;;;23.42;47.10;95486.91;10395901;28;2083;-71
2023/07/04 14:46:00;;;;;;;;;;;;;;;23.42;47.25;95476.34;10395730;28;4557;-70
2023/07/04 14:51:00;;;;;;;;;;;;;;;23.42;47.28;95476.34;10365065;28;1947;-70
2023/07/04 14:56:01;;;;;;;;;;;;;;;23.41;47.71;95474.78;10398261;28;1905;-70
2023/07/04 15:01:03;;;;;;;;;;;;;;;23.41;47.62;95477.44;10381532;28;1902;-71
2023/07/04 15:06:04;;;;;;;;;;;;;;;23.39;47.82;95476.91;10397850;28;1963;-71
2023/07/04 15:11:04;;;;;;;;;;;;;;;23.39;47.96;95479.56;10376513;28;2250;-71
2023/07/04 15:16:06;;;;;;;;;;;;;;;23.39;48.09;95484.84;10396541;28;2075;-71
2023/07/04 15:21:07;;;;;;;;;;;;;;;23.37;47.84;95479.06;10396162;28;1931;-72
2023/07/04 15:26:07;;;;;;;;;;;;;;;23.36;47.96;95469.59;10395832;28;1943;-72
2023/07/04 15:31:08;;;;;;;;;;;;;;;23.36;48.04;95477.53;10391946;28;2026;-71
2023/07/04 15:36:08;;;;;;;;;;;;;;;;;;10394063;28;1903;-71
2023/07/04 15:41:08;;;;;;;;;;;;;;;;;;10397089;28;4521;-71
2023/07/04 15:46:11;;;;;;;;;;;;;;;23.34;48.18;95479.69;10397563;28;1935;-71
2023/07/04 15:51:12;;;;;;;;;;;;;;;23.31;47.96;95470.44;10398241;28;1967;-70
2023/07/04 15:56:13;;;;;;;;;;;;;;;23.31;47.84;95462.50;10386158;28;1943;-72
2023/07/04 16:01:14;;;;;;;;;;;;;;;23.31;48.03;95461.72;10402371;28;1926;-70
2023/07/04 16:06:14;;;;;;;;;;;;;;;23.30;47.66;95454.88;10405763;28;1990;-70
2023/07/04 16:11:15;;;;;;;;;;;;;;;23.29;47.89;95445.38;10412701;28;1998;-70
2023/07/04 16:16:15;;;;;;;;;;;;;;;23.28;47.69;95443.81;10402576;28;1982;-71
2023/07/04 16:21:15;;;;;;;;;;;;;;;23.28;47.84;95443.81;10385911;28;1983;-72
2023/07/04 16:26:16;;;;;;;;;;;;;;;23.27;47.77;95444.88;10385541;28;2017;-70
2023/07/04 16:31:16;;;;;;;;;;;;;;;23.27;47.82;95436.94;10388126;28;2095;-70
2023/07/04 16:36:17;;;;;;;;;;;;;;;23.26;47.53;95441.47;10406472;28;1993;-69
2023/07/04 16:41:17;;;;;;;;;;;;;;;23.26;47.36;95452.06;10402371;28;4537;-68
2023/07/04 16:46:17;;;;;;;;;;;;;;;23.26;47.58;95441.47;10410220;28;1972;-69
2023/07/04 16:51:17;;;;;;;;;;;;;;;23.25;47.64;95439.91;10386278;28;1874;-69
2023/07/04 16:56:19;;;;;;;;;;;;;;;23.25;47.43;95433.81;10403220;28;1950;-69
2023/07/04 17:01:19;;;;;;;;;;;;;;;23.26;47.30;95430.13;10401960;28;2209;-69
2023/07/04 17:06:20;;;;;;;;;;;;;;;23.25;47.51;95434.63;10404973;28;1910;-68
2023/07/04 17:11:20;;;;;;;;;;;;;;;23.26;47.43;95424.81;10406454;28;1978;-69
2023/07/04 17:16:20;;;;;;;;;;;;;;;23.27;47.18;95436.94;10401492;28;1905;-70
2023/07/04 17:21:21;;;;;;;;;;;;;;;23.25;47.42;95431.97;10404134;28;1910;-69
2023/07/04 17:26:21;;;;;;;;;;;;;;;23.27;47.13;95439.59;10387143;28;1914;-69
2023/07/04 17:31:21;;;;;;;;;;;;;;;23.27;47.00;95443.03;10404511;28;1921;-70
2023/07/04 17:36:22;;;;;;;;;;;;;;;23.27;46.96;95443.03;10405618;28;1871;-70
2023/07/04 17:41:23;;;;;;;;;;;;;;;23.27;46.91;95453.63;10403581;28;4443;-72
2023/07/04 17:46:23;;;;;;;;;;;;;;;23.27;46.82;95458.09;10404017;28;1917;-70
2023/07/04 17:51:24;;;;;;;;;;;;;;;23.27;47.08;95458.09;10403056;28;2002;-71
2023/07/04 17:56:24;;;;;;;;;;;;;;;23.27;47.01;95452.81;10406341;28;1898;-71
2023/07/04 18:01:25;;;;;;;;;;;;;;;23.28;46.90;95459.69;10400529;28;2237;-71
2023/07/04 18:06:25;;;;;;;;;;;;;;;23.27;46.86;95452.81;10385656;28;1916;-70
2023/07/04 18:11:26;;;;;;;;;;;;;;;23.27;46.64;95448.31;10402754;28;2461;-71
2023/07/04 18:16:26;;;;;;;;;;;;;;;23.27;46.72;95458.09;10401672;28;1982;-70
2023/07/04 18:21:26;;;;;;;;;;;;;;;23.27;46.59;95471.34;10401149;28;2035;-71
2023/07/04 18:26:27;;;;;;;;;;;;;;;23.27;46.59;95473.97;10384014;28;2127;-71
2023/07/04 18:31:28;;;;;;;;;;;;;;;23.28;46.74;95478.19;10403690;28;1992;-71
2023/07/04 18:36:32;;;;;;;;;;;;;;;23.28;46.56;95478.19;10403733;28;1947;-71
2023/07/04 18:41:33;;;;;;;;;;;;;;;23.28;46.35;95470.28;10411685;28;2022;-71
2023/07/04 18:46:34;;;;;;;;;;;;;;;23.29;46.24;95471.81;10398459;28;2160;-71
2023/07/04 18:51:35;;;;;;;;;;;;;;;23.29;46.61;95469.19;10397275;28;1998;-70
2023/07/04 18:56:37;;;;;;;;;;;;;;;23.30;46.48;95478.69;10385286;28;2294;-71
2023/07/04 19:01:37;;;;;;;;;;;;;;;23.30;46.28;95491.91;10384663;28;2050;-71
2023/07/04 19:06:39;;;;;;;;;;;;;;;23.29;46.10;95493.75;10401249;28;2282;-70
2023/07/04 19:11:40;;;;;;;;;;;;;;;23.30;46.29;95497.19;10400393;28;2024;-71
2023/07/04 19:16:41;;;;;;;;;;;;;;;23.28;46.20;95504.66;10384920;28;2029;-71
2023/07/04 19:21:42;;;;;;;;;;;;;;;23.28;45.85;95502.00;10399440;28;1976;-72
2023/07/04 19:26:42;;;;;;;;;;;;;;;23.28;46.23;95496.72;10396977;28;2018;-73
2023/07/04 19:31:45;;;;;;;;;;;;;;;23.27;46.08;95490.63;10399665;28;2241;-71
2023/07/04 19:36:45;;;;;;;;;;;;;;;23.27;45.93;95488.00;10402931;28;2103;-71
2023/07/04 19:41:45;;;;;;;;;;;;;;;23.27;45.80;95488.00;10378700;28;4620;-71
2023/07/04 19:46:46;;;;;;;;;;;;;;;23.28;45.80;95499.34;10408919;28;1951;-70
2023/07/04 19:51:46;;;;;;;;;;;;;;;23.28;46.03;95492.22;10399701;28;2661;-70
2023/07/04 19:56:46;;;;;;;;;;;;;;;23.27;45.71;95516.28;10380495;28;1962;-71
2023/07/04 20:01:47;;;;;;;;;;;;;;;23.24;45.51;95524.84;10381771;28;1967;-71
2023/07/04 20:06:47;;;;;;;;;;;;;;;23.23;45.31;95521.41;10400097;28;1988;-70
2023/07/04 20:11:48;;;;;;;;;;;;;;;23.21;45.38;95515.63;10396328;28;1991;-70
2023/07/04 20:16:48;;;;;;;;;;;;;;;23.21;45.33;95517.47;10403294;28;1898;-70
2023/07/04 20:21:48;;;;;;;;;;;;;;;23.19;45.16;95517.00;10393174;28;1999;-71
2023/07/04 20:26:49;;;;;;;;;;;;;;;23.20;45.21;95510.63;10396442;28;1883;-69
2023/07/04 20:31:49;;;;;;;;;;;;;;;23.19;45.16;95511.69;10398904;28;2008;-66
2023/07/04 20:36:50;;;;;;;;;;;;;;;23.19;45.15;95506.41;10395966;28;1946;-66
2023/07/04 20:41:50;;;;;;;;;;;;;;;23.18;45.29;95518.88;10405809;28;4600;-72
2023/07/04 20:46:51;;;;;;;;;;;;;;;23.20;45.75;95522.00;10406737;28;2277;-72
2023/07/04 20:51:51;;;;;;;;;;;;;;;23.21;45.87;95520.13;10406606;28;2024;-71
2023/07/04 20:56:53;;;;;;;;;;;;;;;23.21;46.39;95517.47;10404377;28;1895;-71
2023/07/04 21:01:53;;;;;;;;;;;;;;;23.22;46.09;95524.34;10399866;28;2028;-71
2023/07/04 21:06:54;;;;;;;;;;;;;;;23.23;46.11;95521.41;10405130;28;1925;-71
2023/07/04 21:11:54;;;;;;;;;;;;;;;23.24;46.38;95504.47;10404661;28;2026;-71
2023/07/04 21:16:55;;;;;;;;;;;;;;;23.24;46.24;95512.41;10382518;28;2037;-70
2023/07/04 21:21:55;;;;;;;;;;;;;;;23.25;46.29;95515.81;10402118;28;1962;-70
2023/07/04 21:26:57;;;;;;;;;;;;;;;23.26;46.50;95526.09;10404634;28;2023;-69
2023/07/04 21:31:57;;;;;;;;;;;;;;;23.28;46.33;95539.81;10406377;28;2041;-70
2023/07/04 21:36:58;;;;;;;;;;;;;;;23.29;46.29;95551.16;10384259;28;1980;-69
2023/07/04 21:41:58;;;;;;;;;;;;;;;23.27;46.13;95537.44;10404344;28;4289;-70
2023/07/04 21:46:58;;;;;;;;;;;;;;;23.29;46.33;95537.94;10403280;28;2068;-70
2023/07/04 21:51:58;;;;;;;;;;;;;;;23.29;46.38;95536.09;10402530;28;1957;-70
2023/07/04 21:56:59;;;;;;;;;;;;;;;23.29;46.40;95540.56;10403381;28;1898;-70
2023/07/04 22:01:59;;;;;;;;;;;;;;;23.30;46.50;95542.16;10404913;28;1906;-70
2023/07/04 22:06:59;;;;;;;;;;;;;;;23.30;46.55;95536.88;10403620;28;1944;-70
2023/07/04 22:12:00;;;;;;;;;;;;;;;23.31;46.40;95533.91;10404205;28;2062;-71
2023/07/04 22:17:00;;;;;;;;;;;;;;;23.31;46.42;95527.84;10404431;28;1901;-70
2023/07/04 22:22:00;;;;;;;;;;;;;;;23.31;46.59;95519.91;10399724;28;1976;-70
2023/07/04 22:27:01;;;;;;;;;;;;;;;23.30;46.40;95503.28;10400623;28;1891;-69
2023/07/04 22:32:01;;;;;;;;;;;;;;;23.30;46.59;95499.84;10386660;28;1927;-70
2023/07/04 22:37:02;;;;;;;;;;;;;;;23.29;46.18;95503.56;10400540;28;1902;-70
2023/07/04 22:42:02;;;;;;;;;;;;;;;23.28;46.23;95499.34;10403649;28;2368;-70
2023/07/04 22:47:02;;;;;;;;;;;;;;;23.26;46.20;95499.66;10402317;28;1959;-70
2023/07/04 22:52:03;;;;;;;;;;;;;;;23.24;46.25;95498.38;10398615;28;1871;-70
2023/07/04 22:57:03;;;;;;;;;;;;;;;23.21;46.11;95497.09;10384504;28;2028;-70
2023/07/04 23:02:03;;;;;;;;;;;;;;;23.19;46.10;95493.19;10400835;28;2011;-70
2023/07/04 23:07:04;;;;;;;;;;;;;;;23.19;46.24;95501.13;10399378;28;1968;-70
2023/07/04 23:12:04;;;;;;;;;;;;;;;23.17;46.37;95487.41;10400311;28;2010;-70
2023/07/04 23:17:04;;;;;;;;;;;;;;;23.19;46.55;95485.25;10400553;28;1968;-70
2023/07/04 23:22:04;;;;;;;;;;;;;;;23.17;46.23;95468.91;10398061;28;2091;-67
2023/07/04 23:27:05;;;;;;;;;;;;;;;23.18;46.31;95473.13;10399161;28;2084;-68
2023/07/04 23:32:05;;;;;;;;;;;;;;;23.17;46.28;95472.34;10397772;28;2016;-68
2023/07/04 23:37:05;;;;;;;;;;;;;;;23.15;46.05;95466.56;10397126;28;2259;-69
2023/07/04 23:42:06;;;;;;;;;;;;;;;23.13;46.11;95458.16;10397538;28;4639;-69
2023/07/04 23:47:06;;;;;;;;;;;;;;;23.14;46.29;95451.00;10399281;28;2020;-69
2023/07/04 23:52:06;;;;;;;;;;;;;;;23.11;46.21;95443.66;10398838;28;2426;-69
2023/07/04 23:57:08;;;;;;;;;;;;;;;23.09;46.41;95422.81;10401298;28;1902;-69
